| time (UTC) | temp C | wind direction | speed KPH | gust KPH | rain 1hr cm | rain 24hr cm | rain mn cm | humidity % | barometer mb |
| 20260505184553 | -17 | 263 | 14.5 | 20.9 | 0.00 | 0.00 | 0.00 | 1012.9 | |
| 20260505184050 | -17 | 316 | 12.9 | 27.4 | 0.00 | 0.00 | 0.00 | 1013.0 | |
| 20260505183547 | -17 | 281 | 20.9 | 27.4 | 0.00 | 0.00 | 0.00 | 1012.9 | |
| 20260505183045 | -17 | 294 | 11.3 | 16.1 | 0.00 | 0.00 | 0.00 | 1012.7 | |
| 20260505182541 | -17 | 277 | 11.3 | 24.1 | 0.00 | 0.00 | 0.00 | 1012.6 | |
| 20260505182038 | -17 | 310 | 9.7 | 17.7 | 0.00 | 0.00 | 0.00 | 1012.6 | |
| 20260505181534 | -17 | 249 | 16.1 | 22.5 | 0.00 | 0.00 | 0.00 | 1012.6 | |
| 20260505181032 | -17 | 244 | 14.5 | 25.7 | 0.00 | 0.00 | 0.00 | 1012.6 | |
| 20260505180528 | -17 | 268 | 12.9 | 32.2 | 0.00 | 0.00 | 0.00 | 1012.6 | |
| 20260505180027 | -17 | 309 | 8.0 | 17.7 | 0.00 | 0.00 | 0.00 | 1012.5 | |
| 20260505175526 | -17 | 352 | 11.3 | 16.1 | 0.00 | 0.00 | 0.00 | 1012.7 | |
| 20260505175023 | -17 | 334 | 14.5 | 22.5 | 0.00 | 0.00 | 0.00 | 1012.7 | |
| 20260505174520 | -17 | 288 | 8.0 | 17.7 | 0.00 | 0.00 | 0.00 | 1012.7 | |
| 20260505174016 | -17 | 304 | 8.0 | 25.7 | 0.00 | 0.00 | 0.00 | 1012.5 | |
| 20260505173513 | -17 | 250 | 6.4 | 14.5 | 0.00 | 0.00 | 0.00 | 1012.7 | |
| 20260505173010 | -17 | 245 | 17.7 | 25.7 | 0.00 | 0.00 | 0.00 | 1012.7 | |
| 20260505172508 | -17 | 260 | 27.4 | 37.0 | 0.00 | 0.00 | 0.00 | 1012.8 | |
| 20260505172003 | -17 | 333 | 8.0 | 17.7 | 0.00 | 0.00 | 0.00 | 1012.6 | |
| 20260505171459 | -17 | 328 | 20.9 | 25.7 | 0.00 | 0.00 | 0.00 | 1012.6 | |
| 20260505170956 | -17 | 260 | 9.7 | 20.9 | 0.00 | 0.00 | 0.00 | 1012.7 | |
| 20260505170452 | -17 | 326 | 12.9 | 20.9 | 0.00 | 0.00 | 0.00 | 1012.8 | |
| 20260505165948 | -17 | 255 | 11.3 | 17.7 | 0.00 | 0.00 | 0.00 | 1012.8 | |
| 20260505165443 | -17 | 298 | 11.3 | 16.1 | 0.00 | 0.00 | 0.00 | 1012.9 | |
| 20260505164939 | -17 | 338 | 14.5 | 20.9 | 0.00 | 0.00 | 0.00 | 1012.9 | |
| 20260505164436 | -17 | 266 | 8.0 | 12.9 | 0.00 | 0.00 | 0.00 | 1012.9 | |
| 20260505163934 | -17 | 306 | 14.5 | 24.1 | 0.00 | 0.00 | 0.00 | 1012.7 | |
| 20260505163433 | -17 | 267 | 14.5 | 16.1 | 0.00 | 0.00 | 0.00 | 1012.7 | |
| 20260505162931 | -17 | 259 | 11.3 | 14.5 | 0.00 | 0.00 | 0.00 | 1012.6 | |
| 20260505162427 | -17 | 265 | 8.0 | 16.1 | 0.00 | 0.00 | 0.00 | 1012.5 | |
| 20260505161924 | -17 | 342 | 14.5 | 17.7 | 0.00 | 0.00 | 0.00 | 1012.8 | |
| 20260505161420 | -17 | 324 | 11.3 | 22.5 | 0.00 | 0.00 | 0.00 | 1012.6 | |
| 20260505160918 | -17 | 306 | 12.9 | 17.7 | 0.00 | 0.00 | 0.00 | 1012.7 | |
| 20260505160416 | -17 | 274 | 17.7 | 25.7 | 0.00 | 0.00 | 0.00 | 1012.8 | |
| 20260505153355 | -17 | 323 | 8.0 | 25.7 | 0.00 | 0.00 | 0.00 | 1012.4 | |
| 20260505152852 | -17 | 319 | 14.5 | 25.7 | 0.00 | 0.00 | 0.00 | 1012.6 | |
| 20260505152349 | -17 | 324 | 4.8 | 9.7 | 0.00 | 0.00 | 0.00 | 1012.5 | |
| 20260505151849 | -17 | 343 | 14.5 | 20.9 | 0.00 | 0.00 | 0.00 | 1012.7 | |
| 20260505151346 | -17 | 291 | 8.0 | 12.9 | 0.00 | 0.00 | 0.00 | 1012.3 | |
| 20260505150843 | -17 | 285 | 8.0 | 12.9 | 0.00 | 0.00 | 0.00 | 1012.4 | |
| 20260505150341 | -17 | 273 | 9.7 | 17.7 | 0.00 | 0.00 | 0.00 | 1012.3 | |
| 20260505140310 | -17 | 256 | 12.9 | 17.7 | 0.00 | 0.00 | 0.00 | 1012.8 | |
| 20260505130234 | -17 | 243 | 6.4 | 9.7 | 0.00 | 0.00 | 0.00 | 1012.8 | |
| 20260505124724 | -17 | 279 | 3.2 | 4.8 | 0.00 | 0.00 | 0.00 | 1012.9 | |
| 20260505124221 | -17 | 247 | 4.8 | 8.0 | 0.00 | 0.00 | 0.00 | 1012.9 | |
| 20260505123717 | -17 | 243 | 4.8 | 8.0 | 0.00 | 0.00 | 0.00 | 1012.9 | |
| 20260505123214 | -17 | 231 | 4.8 | 4.8 | 0.00 | 0.00 | 0.00 | 1012.8 | |
| 20260505122710 | -17 | 236 | 3.2 | 3.2 | 0.00 | 0.00 | 0.00 | 1012.8 | |
| 20260505122208 | -17 | 229 | 0.0 | 3.2 | 0.00 | 0.00 | 0.00 | 1012.6 | |
| 20260505121704 | -17 | 247 | 1.6 | 4.8 | 0.00 | 0.00 | 0.00 | 1012.6 | |
| 20260505121201 | -17 | 257 | 1.6 | 3.2 | 0.00 | 0.00 | 0.00 | 1012.6 | |
| 20260505120657 | -17 | 240 | 1.6 | 1.6 | 0.00 | 0.00 | 0.00 | 1012.8 | |
| 20260505120153 | -17 | 212 | 1.6 | 1.6 | 0.00 | 0.00 | 0.00 | 1012.5 | |
| 20260505115647 | -17 | 211 | 0.0 | 1.6 | 0.00 | 0.00 | 0.00 | 1012.7 | |
| 20260505115145 | -17 | 217 | 1.6 | 1.6 | 0.00 | 0.00 | 0.00 | 1012.8 | |
| 20260505114642 | -17 | 212 | 3.2 | 8.0 | 0.00 | 0.00 | 0.00 | 1012.6 | |
| 20260505114138 | -17 | 219 | 3.2 | 3.2 | 0.00 | 0.00 | 0.00 | 1012.4 | |
| 20260505113634 | -17 | 226 | 0.0 | 1.6 | 0.00 | 0.00 | 0.00 | 1012.0 | |
| 20260505113131 | -17 | 226 | 0.0 | 1.6 | 0.00 | 0.00 | 0.00 | 1011.4 | |
| 20260505112627 | -17 | 225 | 0.0 | 1.6 | 0.00 | 0.00 | 0.00 | 1011.3 | |
| 20260505112126 | -17 | 249 | 0.0 | 1.6 | 0.00 | 0.00 | 0.00 | 1011.2 | |
| 20260505111625 | -17 | 254 | 1.6 | 3.2 | 0.00 | 0.00 | 0.00 | 1011.1 | |
| 20260505111121 | -17 | 231 | 1.6 | 1.6 | 0.00 | 0.00 | 0.00 | 1010.7 | |
| 20260505110618 | -17 | 74 | 1.6 | 1.6 | 0.00 | 0.00 | 0.00 | 1010.6 | |
| 20260505110115 | -17 | 57 | 1.6 | 1.6 | 0.00 | 0.00 | 0.00 | 1010.8 | |
| 20260505102050 | -17 | 235 | 1.6 | 1.6 | 0.00 | 0.00 | 0.00 | 1010.9 | |
| 20260505101549 | -17 | 304 | 3.2 | 4.8 | 0.00 | 0.00 | 0.00 | 1011.1 | |
| 20260505101045 | -17 | 263 | 1.6 | 3.2 | 0.00 | 0.00 | 0.00 | 1011.2 | |
| 20260505100542 | -17 | 308 | 4.8 | 4.8 | 0.00 | 0.00 | 0.00 | 1010.8 | |
| 20260505100039 | -17 | 298 | 6.4 | 8.0 | 0.00 | 0.00 | 0.00 | 1010.7 | |
| 20260505095535 | -17 | 309 | 4.8 | 4.8 | 0.00 | 0.00 | 0.00 | 1010.8 | |
| 20260505095031 | -17 | 263 | 3.2 | 4.8 | 0.00 | 0.00 | 0.00 | 1010.7 | |
| 20260505094528 | -17 | 311 | 3.2 | 8.0 | 0.00 | 0.00 | 0.00 | 1010.2 | |
| 20260505094024 | -17 | 314 | 8.0 | 9.7 | 0.00 | 0.00 | 0.00 | 1010.3 | |
| 20260505093521 | -17 | 325 | 4.8 | 8.0 | 0.00 | 0.00 | 0.00 | 1010.3 | |
| 20260505093018 | -17 | 337 | 4.8 | 9.7 | 0.00 | 0.00 | 0.00 | 1010.3 | |
| 20260505092515 | -17 | 312 | 6.4 | 8.0 | 0.00 | 0.00 | 0.00 | 1010.2 | |
| 20260505092014 | -17 | 328 | 4.8 | 12.9 | 0.00 | 0.00 | 0.00 | 1010.4 | |
| 20260505091510 | -17 | 345 | 9.7 | 17.7 | 0.00 | 0.00 | 0.00 | 1010.2 | |
| 20260505091009 | -17 | 307 | 9.7 | 9.7 | 0.00 | 0.00 | 0.00 | 1010.2 | |
| 20260505090506 | -17 | 326 | 6.4 | 12.9 | 0.00 | 0.00 | 0.00 | 1010.4 | |
| 20260505090004 | -17 | 314 | 8.0 | 11.3 | 0.00 | 0.00 | 0.00 | 1010.1 | |
| 20260505085501 | -17 | 348 | 4.8 | 9.7 | 0.00 | 0.00 | 0.00 | 1010.4 | |
| 20260505084959 | -17 | 319 | 6.4 | 9.7 | 0.00 | 0.00 | 0.00 | 1010.6 | |
| 20260505084457 | -17 | 306 | 3.2 | 8.0 | 0.00 | 0.00 | 0.00 | 1010.5 | |
| 20260505083955 | -17 | 267 | 3.2 | 9.7 | 0.00 | 0.00 | 0.00 | 1010.6 | |
| 20260505083452 | -17 | 330 | 3.2 | 8.0 | 0.00 | 0.00 | 0.00 | 1010.1 | |
| 20260505082948 | -17 | 334 | 11.3 | 12.9 | 0.00 | 0.00 | 0.00 | 1010.0 | |
| 20260505082444 | -17 | 336 | 8.0 | 11.3 | 0.00 | 0.00 | 0.00 | 1009.5 | |
| 20260505081941 | -17 | 357 | 14.5 | 16.1 | 0.00 | 0.00 | 0.00 | 1009.3 | |
| 20260505081438 | -17 | 357 | 12.9 | 14.5 | 0.00 | 0.00 | 0.00 | 1009.2 | |
| 20260505080934 | -17 | 331 | 6.4 | 14.5 | 0.00 | 0.00 | 0.00 | 1009.2 | |
| 20260505080431 | -17 | 0 | 11.3 | 29.0 | 0.00 | 0.00 | 0.00 | 1009.1 | |
| 20260505075926 | -17 | 323 | 14.5 | 20.9 | 0.00 | 0.00 | 0.00 | 1009.0 | |
| 20260505075423 | -17 | 358 | 6.4 | 16.1 | 0.00 | 0.00 | 0.00 | 1008.7 | |
| 20260505074921 | -17 | 335 | 8.0 | 9.7 | 0.00 | 0.00 | 0.00 | 1008.7 | |
| 20260505074418 | -17 | 1 | 12.9 | 22.5 | 0.00 | 0.00 | 0.00 | 1008.6 | |
| 20260505073915 | -17 | 354 | 3.2 | 8.0 | 0.00 | 0.00 | 0.00 | 1008.7 | |
| 20260505073413 | -17 | 328 | 8.0 | 22.5 | 0.00 | 0.00 | 0.00 | 1008.7 | |
| 20260505072910 | -17 | 344 | 8.0 | 17.7 | 0.00 | 0.00 | 0.00 | 1008.3 | |
| 20260505072405 | -17 | 21 | 14.5 | 17.7 | 0.00 | 0.00 | 0.00 | 1008.2 | |
| 20260505071902 | -17 | 347 | 6.4 | 9.7 | 0.00 | 0.00 | 0.00 | 1007.9 | |
| 20260505071358 | -17 | 314 | 6.4 | 16.1 | 0.00 | 0.00 | 0.00 | 1007.5 | |
| 20260505070856 | -17 | 358 | 12.9 | 20.9 | 0.00 | 0.00 | 0.00 | 1007.5 | |
| 20260505070352 | -17 | 318 | 11.3 | 16.1 | 0.00 | 0.00 | 0.00 | 1007.8 | |
| 20260505065848 | -17 | 318 | 11.3 | 16.1 | 0.00 | 0.00 | 0.00 | 1007.7 | |
| 20260505065345 | -17 | 11 | 8.0 | 16.1 | 0.00 | 0.00 | 0.00 | 1007.9 | |
| 20260505064842 | -17 | 350 | 8.0 | 9.7 | 0.00 | 0.00 | 0.00 | 1007.8 | |
| 20260505064339 | -17 | 17 | 6.4 | 17.7 | 0.00 | 0.00 | 0.00 | 1007.9 | |
| 20260505063837 | -17 | 347 | 11.3 | 17.7 | 0.00 | 0.00 | 0.00 | 1007.6 | |
| 20260505063333 | -17 | 341 | 14.5 | 17.7 | 0.00 | 0.00 | 0.00 | 1007.5 | |
| 20260505062830 | -17 | 344 | 16.1 | 20.9 | 0.00 | 0.00 | 0.00 | 1007.2 | |
| 20260505062327 | -17 | 339 | 11.3 | 17.7 | 0.00 | 0.00 | 0.00 | 1007.2 | |
| 20260505061824 | -17 | 332 | 14.5 | 17.7 | 0.00 | 0.00 | 0.00 | 1007.2 | |
| 20260505061322 | -17 | 330 | 8.0 | 12.9 | 0.00 | 0.00 | 0.00 | 1007.2 | |
| 20260505060819 | -17 | 293 | 6.4 | 9.7 | 0.00 | 0.00 | 0.00 | 1007.4 | |
| 20260505060316 | -17 | 315 | 4.8 | 8.0 | 0.00 | 0.00 | 0.00 | 1007.2 | |
| 20260505055812 | -17 | 349 | 6.4 | 14.5 | 0.00 | 0.00 | 0.00 | 1006.9 | |
| 20260505055308 | -17 | 289 | 8.0 | 11.3 | 0.00 | 0.00 | 0.00 | 1006.7 | |
| 20260505054806 | -17 | 348 | 8.0 | 12.9 | 0.00 | 0.00 | 0.00 | 1006.7 | |
| 20260505054303 | -17 | 324 | 8.0 | 14.5 | 0.00 | 0.00 | 0.00 | 1007.0 | |
| 20260505053801 | -17 | 349 | 4.8 | 11.3 | 0.00 | 0.00 | 0.00 | 1007.0 | |
| 20260505053257 | -17 | 282 | 3.2 | 8.0 | 0.00 | 0.00 | 0.00 | 1006.8 | |
| 20260505052754 | -17 | 330 | 8.0 | 20.9 | 0.00 | 0.00 | 0.00 | 1006.8 | |
| 20260505052251 | -17 | 341 | 3.2 | 4.8 | 0.00 | 0.00 | 0.00 | 1006.9 | |
| 20260505051748 | -17 | 319 | 8.0 | 9.7 | 0.00 | 0.00 | 0.00 | 1006.7 | |
| 20260505051246 | -17 | 293 | 4.8 | 8.0 | 0.00 | 0.00 | 0.00 | 1006.8 | |
| 20260505050744 | -17 | 326 | 4.8 | 12.9 | 0.00 | 0.00 | 0.00 | 1006.8 | |
| 20260505050242 | -17 | 304 | 4.8 | 8.0 | 0.00 | 0.00 | 0.00 | 1006.5 | |
| 20260505041712 | -17 | 341 | 4.8 | 12.9 | 0.00 | 0.00 | 0.00 | 1005.7 | |
| 20260505041209 | -17 | 252 | 3.2 | 4.8 | 0.00 | 0.00 | 0.00 | 1005.9 | |
| 20260505040706 | -17 | 227 | 0.0 | 4.8 | 0.00 | 0.00 | 0.00 | 1005.6 | |
| 20260505040203 | -17 | 303 | 1.6 | 4.8 | 0.00 | 0.00 | 0.00 | 1005.6 | |
| 20260505035700 | -17 | 16 | 1.6 | 3.2 | 0.00 | 0.00 | 0.00 | 1005.8 | |
| 20260505035156 | -17 | 302 | 6.4 | 9.7 | 0.00 | 0.00 | 0.00 | 1005.8 | |
| 20260505034652 | -17 | 359 | 4.8 | 9.7 | 0.00 | 0.00 | 0.00 | 1005.9 | |
| 20260505034150 | -17 | 305 | 4.8 | 8.0 | 0.00 | 0.00 | 0.00 | 1005.7 | |
| 20260505033646 | -17 | 303 | 4.8 | 4.8 | 0.00 | 0.00 | 0.00 | 1005.7 | |
| 20260505033145 | -17 | 308 | 6.4 | 11.3 | 0.00 | 0.00 | 0.00 | 1005.7 | |
| 20260505032642 | -17 | 260 | 4.8 | 8.0 | 0.00 | 0.00 | 0.00 | 1005.7 | |
| 20260505032133 | -17 | 264 | 11.3 | 14.5 | 0.00 | 0.00 | 0.00 | 1005.8 | |
| 20260505031630 | -17 | 319 | 8.0 | 12.9 | 0.00 | 0.00 | 0.00 | 1005.9 | |
| 20260505031125 | -17 | 278 | 4.8 | 8.0 | 0.00 | 0.00 | 0.00 | 1005.8 | |
| 20260505030623 | -17 | 245 | 6.4 | 12.9 | 0.00 | 0.00 | 0.00 | 1005.6 | |
| 20260505030119 | -17 | 259 | 6.4 | 11.3 | 0.00 | 0.00 | 0.00 | 1005.4 | |
| 20260505025614 | -17 | 291 | 4.8 | 8.0 | 0.00 | 0.00 | 0.00 | 1005.4 | |
| 20260505025114 | -17 | 320 | 8.0 | 14.5 | 0.00 | 0.00 | 0.00 | 1005.4 | |
| 20260505024610 | -17 | 303 | 9.7 | 16.1 | 0.00 | 0.00 | 0.00 | 1005.3 | |
| 20260505024108 | -17 | 256 | 4.8 | 4.8 | 0.00 | 0.00 | 0.00 | 1005.3 | |
| 20260505023605 | -17 | 237 | 1.6 | 3.2 | 0.00 | 0.00 | 0.00 | 1005.0 | |
| 20260505023102 | -17 | 226 | 0.0 | 1.6 | 0.00 | 0.00 | 0.00 | 1004.9 | |
| 20260505022600 | -17 | 257 | 3.2 | 3.2 | 0.00 | 0.00 | 0.00 | 1004.7 | |
| 20260505022056 | -17 | 206 | 0.0 | 1.6 | 0.00 | 0.00 | 0.00 | 1004.7 | |
| 20260505021553 | -17 | 231 | 1.6 | 3.2 | 0.00 | 0.00 | 0.00 | 1004.3 | |
| 20260505021050 | -17 | 231 | 1.6 | 3.2 | 0.00 | 0.00 | 0.00 | 1004.2 | |
| 20260505020549 | -17 | 306 | 4.8 | 9.7 | 0.00 | 0.00 | 0.00 | 1003.9 | |
| 20260505020047 | -17 | 317 | 6.4 | 11.3 | 0.00 | 0.00 | 0.00 | 1003.8 | |
| 20260505015544 | -17 | 304 | 9.7 | 16.1 | 0.00 | 0.00 | 0.00 | 1003.9 | |
| 20260505015041 | -17 | 339 | 4.8 | 8.0 | 0.00 | 0.00 | 0.00 | 1003.5 | |
| 20260505014537 | -17 | 323 | 11.3 | 14.5 | 0.00 | 0.00 | 0.00 | 1003.6 | |
| 20260505014035 | -17 | 295 | 8.0 | 11.3 | 0.00 | 0.00 | 0.00 | 1003.5 | |
| 20260505013531 | -17 | 299 | 14.5 | 20.9 | 0.00 | 0.00 | 0.00 | 1003.4 | |
| 20260505013029 | -17 | 301 | 11.3 | 16.1 | 0.00 | 0.00 | 0.00 | 1003.1 | |
| 20260505012527 | -17 | 280 | 8.0 | 17.7 | 0.00 | 0.00 | 0.00 | 1003.0 | |
| 20260505012024 | -17 | 320 | 12.9 | 25.7 | 0.00 | 0.00 | 0.00 | 1002.7 | |
| 20260505011519 | -17 | 345 | 19.3 | 24.1 | 0.00 | 0.00 | 0.00 | 1002.6 | |
| 20260505011017 | -17 | 324 | 8.0 | 14.5 | 0.00 | 0.00 | 0.00 | 1002.8 | |
| 20260505010512 | -17 | 13 | 16.1 | 24.1 | 0.00 | 0.00 | 0.00 | 1002.9 | |
| 20260505010009 | -17 | 317 | 19.3 | 27.4 | 0.00 | 0.00 | 0.00 | 1002.7 | |
| 20260505005505 | -17 | 292 | 17.7 | 22.5 | 0.00 | 0.00 | 0.00 | 1002.4 | |
| 20260505005004 | -17 | 313 | 8.0 | 11.3 | 0.00 | 0.00 | 0.00 | 1002.1 | |
| 20260505004500 | -17 | 304 | 8.0 | 12.9 | 0.00 | 0.00 | 0.00 | 1002.0 | |
| 20260505003956 | -17 | 325 | 9.7 | 14.5 | 0.00 | 0.00 | 0.00 | 1002.0 | |
| 20260505003453 | -17 | 328 | 17.7 | 27.4 | 0.00 | 0.00 | 0.00 | 1001.7 | |
| 20260505002950 | -17 | 328 | 22.5 | 29.0 | 0.00 | 0.00 | 0.00 | 1001.4 | |
| 20260505002446 | -17 | 282 | 11.3 | 14.5 | 0.00 | 0.00 | 0.00 | 1001.3 | |
| 20260505001944 | -17 | 241 | 9.7 | 12.9 | 0.00 | 0.00 | 0.00 | 1001.1 | |
| 20260505001442 | -17 | 321 | 22.5 | 32.2 | 0.00 | 0.00 | 0.00 | 1001.1 | |
| 20260505000938 | -17 | 330 | 11.3 | 24.1 | 0.00 | 0.00 | 0.00 | 1001.1 | |
| 20260505000437 | -17 | 335 | 17.7 | 35.4 | 0.00 | 0.00 | 0.00 | 1001.0 | |
| 20260504235933 | -17 | 304 | 11.3 | 20.9 | 0.00 | 0.00 | 0.00 | 1000.9 | |
| 20260504235430 | -17 | 272 | 8.0 | 32.2 | 0.00 | 0.00 | 0.00 | 1001.0 | |
| 20260504234926 | -17 | 313 | 17.7 | 25.7 | 0.00 | 0.00 | 0.00 | 1000.9 | |
| 20260504234424 | -17 | 337 | 20.9 | 29.0 | 0.00 | 0.00 | 0.00 | 1000.8 | |
| 20260504233920 | -17 | 330 | 17.7 | 24.1 | 0.00 | 0.00 | 0.00 | 1000.6 | |
| 20260504233416 | -17 | 292 | 19.3 | 29.0 | 0.00 | 0.00 | 0.00 | 1000.3 | |
| 20260504232913 | -17 | 295 | 11.3 | 20.9 | 0.00 | 0.00 | 0.00 | 1000.5 | |
| 20260504232410 | -17 | 285 | 16.1 | 17.7 | 0.00 | 0.00 | 0.00 | 1000.4 | |
| 20260504231908 | -17 | 278 | 8.0 | 16.1 | 0.00 | 0.00 | 0.00 | 1000.2 | |
| 20260504231403 | -17 | 299 | 14.5 | 20.9 | 0.00 | 0.00 | 0.00 | 1000.2 | |
| 20260504230900 | -17 | 290 | 9.7 | 20.9 | 0.00 | 0.00 | 0.00 | 1000.3 | |
| 20260504230357 | -17 | 346 | 14.5 | 27.4 | 0.00 | 0.00 | 0.00 | 1000.1 | |
| 20260504225856 | -17 | 281 | 9.7 | 24.1 | 0.00 | 0.00 | 0.00 | 1000.0 | |
| 20260504225352 | -17 | 291 | 9.7 | 25.7 | 0.00 | 0.00 | 0.00 | 1000.1 | |
| 20260504224850 | -17 | 315 | 14.5 | 20.9 | 0.00 | 0.00 | 0.00 | 1000.0 | |
| 20260504224346 | -17 | 285 | 8.0 | 17.7 | 0.00 | 0.00 | 0.00 | 1000.0 | |
| 20260504223843 | -17 | 280 | 9.7 | 20.9 | 0.00 | 0.00 | 0.00 | 1000.0 | |
| 20260504223338 | -17 | 331 | 8.0 | 27.4 | 0.00 | 0.00 | 0.00 | 1000.2 | |
| 20260504222835 | -17 | 270 | 22.5 | 27.4 | 0.00 | 0.00 | 0.00 | 999.8 | |
| 20260504222332 | -17 | 269 | 12.9 | 24.1 | 0.00 | 0.00 | 0.00 | 999.9 | |
| 20260504221831 | -17 | 275 | 11.3 | 17.7 | 0.00 | 0.00 | 0.00 | 1000.0 | |
| 20260504221327 | -17 | 250 | 12.9 | 16.1 | 0.00 | 0.00 | 0.00 | 1000.0 | |
| 20260504220824 | -17 | 247 | 17.7 | 22.5 | 0.00 | 0.00 | 0.00 | 1000.1 | |
| 20260504220321 | -17 | 263 | 12.9 | 25.7 | 0.00 | 0.00 | 0.00 | 999.9 | |
| 20260504215818 | -17 | 243 | 19.3 | 33.8 | 0.00 | 0.00 | 0.00 | 1000.0 | |
| 20260504215314 | -17 | 247 | 20.9 | 33.8 | 0.00 | 0.00 | 0.00 | 1000.0 | |
| 20260504214810 | -17 | 254 | 22.5 | 32.2 | 0.00 | 0.00 | 0.00 | 1000.1 | |
| 20260504214308 | -17 | 254 | 17.7 | 22.5 | 0.00 | 0.00 | 0.00 | 1000.3 | |
| 20260504213804 | -17 | 259 | 16.1 | 20.9 | 0.00 | 0.00 | 0.00 | 999.8 | |
| 20260504213300 | -17 | 247 | 11.3 | 17.7 | 0.00 | 0.00 | 0.00 | 1000.0 | |
| 20260504212758 | -17 | 243 | 11.3 | 35.4 | 0.00 | 0.00 | 0.00 | 1000.2 | |
| 20260504212254 | -17 | 277 | 19.3 | 32.2 | 0.00 | 0.00 | 0.00 | 1000.1 | |
| 20260504211752 | -17 | 258 | 16.1 | 29.0 | 0.00 | 0.00 | 0.00 | 1000.2 | |
| 20260504211247 | -17 | 256 | 9.7 | 25.7 | 0.00 | 0.00 | 0.00 | 1000.3 | |
| 20260504210745 | -17 | 255 | 20.9 | 32.2 | 0.00 | 0.00 | 0.00 | 1000.3 | |
| 20260504210242 | -17 | 254 | 16.1 | 27.4 | 0.00 | 0.00 | 0.00 | 1000.3 | |
| 20260504205739 | -17 | 257 | 19.3 | 37.0 | 0.00 | 0.00 | 0.00 | 1000.4 | |
| 20260504205237 | -17 | 289 | 27.4 | 35.4 | 0.00 | 0.00 | 0.00 | 1000.4 | |
| 20260504204735 | -17 | 236 | 24.1 | 27.4 | 0.00 | 0.00 | 0.00 | 1000.5 | |
| 20260504204233 | -17 | 254 | 16.1 | 27.4 | 0.00 | 0.00 | 0.00 | 1000.5 | |
| 20260504203732 | -17 | 257 | 16.1 | 25.7 | 0.00 | 0.00 | 0.00 | 1000.9 | |
| 20260504203229 | -17 | 262 | 19.3 | 25.7 | 0.00 | 0.00 | 0.00 | 1000.7 | |
| 20260504202723 | -17 | 217 | 27.4 | 35.4 | 0.00 | 0.00 | 0.00 | 1000.7 | |
| 20260504202221 | -17 | 251 | 22.5 | 29.0 | 0.00 | 0.00 | 0.00 | 1000.9 | |
| 20260504201718 | -17 | 244 | 17.7 | 25.7 | 0.00 | 0.00 | 0.00 | 1001.0 | |
| 20260504201215 | -17 | 248 | 16.1 | 25.7 | 0.00 | 0.00 | 0.00 | 1000.9 | |
| 20260504200713 | -17 | 209 | 14.5 | 25.7 | 0.00 | 0.00 | 0.00 | 1001.3 | |
| 20260504200208 | -17 | 256 | 14.5 | 25.7 | 0.00 | 0.00 | 0.00 | 1001.0 | |
| 20260504195705 | -17 | 227 | 17.7 | 27.4 | 0.00 | 0.00 | 0.00 | 1001.2 | |
| 20260504195201 | -17 | 266 | 22.5 | 32.2 | 0.00 | 0.00 | 0.00 | 1001.2 | |
| 20260504194658 | -17 | 272 | 22.5 | 38.6 | 0.00 | 0.00 | 0.00 | 1001.2 | |
| 20260504194154 | -17 | 249 | 22.5 | 40.2 | 0.00 | 0.00 | 0.00 | 1001.3 | |
| 20260504193651 | -17 | 225 | 27.4 | 35.4 | 0.00 | 0.00 | 0.00 | 1001.3 | |
| 20260504193149 | -17 | 270 | 16.1 | 32.2 | 0.00 | 0.00 | 0.00 | 1001.2 | |
| 20260504192647 | -17 | 269 | 11.3 | 32.2 | 0.00 | 0.00 | 0.00 | 1001.5 | |
| 20260504192144 | -17 | 263 | 11.3 | 33.8 | 0.00 | 0.00 | 0.00 | 1001.5 | |
| 20260504191643 | -17 | 235 | 16.1 | 25.7 | 0.00 | 0.00 | 0.00 | 1001.4 | |
| 20260504191138 | -17 | 253 | 22.5 | 32.2 | 0.00 | 0.00 | 0.00 | 1001.4 | |
| 20260504190634 | -17 | 269 | 19.3 | 29.0 | 0.00 | 0.00 | 0.00 | 1001.6 | |
| 20260504190131 | -17 | 230 | 19.3 | 33.8 | 0.00 | 0.00 | 0.00 | 1001.3 | |
| 20260504185627 | -17 | 267 | 19.3 | 32.2 | 0.00 | 0.00 | 0.00 | 1001.5 | |
| 20260504185124 | -17 | 255 | 27.4 | 35.4 | 0.00 | 0.00 | 0.00 | 1001.7 |